sensor_id;sensor_type;location;lat;lon;timestamp;temperature;humidity
18305;DHT22;9278;52.156;21.048;2022-08-03T00:00:32;18.30;99.90
18305;DHT22;9278;52.156;21.048;2022-08-03T00:03:01;18.30;99.90
18305;DHT22;9278;52.156;21.048;2022-08-03T00:05:29;18.20;99.90
18305;DHT22;9278;52.156;21.048;2022-08-03T00:07:58;18.20;99.90
18305;DHT22;9278;52.156;21.048;2022-08-03T00:10:27;18.20;99.90
18305;DHT22;9278;52.156;21.048;2022-08-03T00:12:57;18.20;99.90
18305;DHT22;9278;52.156;21.048;2022-08-03T00:15:25;18.10;99.90
18305;DHT22;9278;52.156;21.048;2022-08-03T00:17:53;18.10;99.90
18305;DHT22;9278;52.156;21.048;2022-08-03T00:20:21;18.00;99.90
18305;DHT22;9278;52.156;21.048;2022-08-03T00:22:50;18.10;99.90
18305;DHT22;9278;52.156;21.048;2022-08-03T00:25:18;17.90;99.90
18305;DHT22;9278;52.156;21.048;2022-08-03T00:27:46;18.00;99.90
18305;DHT22;9278;52.156;21.048;2022-08-03T00:30:18;17.80;99.90
18305;DHT22;9278;52.156;21.048;2022-08-03T00:32:46;17.90;99.90
18305;DHT22;9278;52.156;21.048;2022-08-03T00:35:15;17.80;99.90
18305;DHT22;9278;52.156;21.048;2022-08-03T00:38:04;17.80;99.90
18305;DHT22;9278;52.156;21.048;2022-08-03T00:40:33;17.80;99.90
18305;DHT22;9278;52.156;21.048;2022-08-03T00:43:02;17.80;99.90
18305;DHT22;9278;52.156;21.048;2022-08-03T00:45:34;17.80;99.90
18305;DHT22;9278;52.156;21.048;2022-08-03T00:48:03;17.70;99.90
18305;DHT22;9278;52.156;21.048;2022-08-03T00:50:46;17.60;99.90
18305;DHT22;9278;52.156;21.048;2022-08-03T00:53:18;17.60;99.90
18305;DHT22;9278;52.156;21.048;2022-08-03T00:55:46;17.60;99.90
18305;DHT22;9278;52.156;21.048;2022-08-03T00:58:14;17.50;99.90
18305;DHT22;9278;52.156;21.048;2022-08-03T01:00:44;17.50;99.90
18305;DHT22;9278;52.156;21.048;2022-08-03T01:03:12;17.50;99.90
18305;DHT22;9278;52.156;21.048;2022-08-03T01:05:45;17.40;99.90
18305;DHT22;9278;52.156;21.048;2022-08-03T01:08:21;17.30;99.90
18305;DHT22;9278;52.156;21.048;2022-08-03T01:10:56;17.30;99.90
18305;DHT22;9278;52.156;21.048;2022-08-03T01:13:33;17.40;99.90
18305;DHT22;9278;52.156;21.048;2022-08-03T01:16:27;17.30;99.90
18305;DHT22;9278;52.156;21.048;2022-08-03T01:19:12;17.30;99.90
18305;DHT22;9278;52.156;21.048;2022-08-03T01:21:53;17.30;99.90
18305;DHT22;9278;52.156;21.048;2022-08-03T01:24:34;17.20;99.90
18305;DHT22;9278;52.156;21.048;2022-08-03T01:27:09;17.20;99.90
18305;DHT22;9278;52.156;21.048;2022-08-03T01:29:49;17.20;99.90
18305;DHT22;9278;52.156;21.048;2022-08-03T01:32:21;17.20;99.90
18305;DHT22;9278;52.156;21.048;2022-08-03T01:35:15;17.30;99.90
18305;DHT22;9278;52.156;21.048;2022-08-03T01:37:49;17.20;99.90
18305;DHT22;9278;52.156;21.048;2022-08-03T01:40:19;17.10;99.90
18305;DHT22;9278;52.156;21.048;2022-08-03T01:42:49;17.10;99.90
18305;DHT22;9278;52.156;21.048;2022-08-03T01:45:20;17.10;99.90
18305;DHT22;9278;52.156;21.048;2022-08-03T01:47:49;17.00;99.90
18305;DHT22;9278;52.156;21.048;2022-08-03T01:50:21;17.00;99.90
18305;DHT22;9278;52.156;21.048;2022-08-03T01:52:51;17.10;99.90
18305;DHT22;9278;52.156;21.048;2022-08-03T01:55:20;17.20;99.90
18305;DHT22;9278;52.156;21.048;2022-08-03T01:57:51;17.10;99.90
18305;DHT22;9278;52.156;21.048;2022-08-03T02:00:34;17.10;99.90
18305;DHT22;9278;52.156;21.048;2022-08-03T02:03:04;17.00;99.90
18305;DHT22;9278;52.156;21.048;2022-08-03T02:05:33;16.90;99.90
18305;DHT22;9278;52.156;21.048;2022-08-03T02:08:04;16.90;99.90
18305;DHT22;9278;52.156;21.048;2022-08-03T02:10:35;16.90;99.90
18305;DHT22;9278;52.156;21.048;2022-08-03T02:13:05;16.90;99.90
18305;DHT22;9278;52.156;21.048;2022-08-03T02:15:36;16.90;99.90
18305;DHT22;9278;52.156;21.048;2022-08-03T02:18:07;17.00;99.90
18305;DHT22;9278;52.156;21.048;2022-08-03T02:20:36;17.00;99.90
18305;DHT22;9278;52.156;21.048;2022-08-03T02:23:05;17.00;99.90
18305;DHT22;9278;52.156;21.048;2022-08-03T02:25:39;17.00;99.90
18305;DHT22;9278;52.156;21.048;2022-08-03T02:28:12;17.10;99.90
18305;DHT22;9278;52.156;21.048;2022-08-03T02:30:46;17.10;99.90
18305;DHT22;9278;52.156;21.048;2022-08-03T02:33:24;17.00;99.90
18305;DHT22;9278;52.156;21.048;2022-08-03T02:35:54;17.00;99.90
18305;DHT22;9278;52.156;21.048;2022-08-03T02:38:27;17.00;99.90
18305;DHT22;9278;52.156;21.048;2022-08-03T02:40:59;17.00;99.90
18305;DHT22;9278;52.156;21.048;2022-08-03T02:43:29;17.00;99.90
18305;DHT22;9278;52.156;21.048;2022-08-03T02:46:23;16.90;99.90
18305;DHT22;9278;52.156;21.048;2022-08-03T02:48:53;17.00;99.90
18305;DHT22;9278;52.156;21.048;2022-08-03T02:51:23;17.00;99.90
18305;DHT22;9278;52.156;21.048;2022-08-03T02:53:53;17.10;99.90
18305;DHT22;9278;52.156;21.048;2022-08-03T02:56:23;17.10;99.90
18305;DHT22;9278;52.156;21.048;2022-08-03T02:58:52;17.10;99.90
18305;DHT22;9278;52.156;21.048;2022-08-03T03:01:24;17.00;99.90
18305;DHT22;9278;52.156;21.048;2022-08-03T03:03:55;17.00;99.90
18305;DHT22;9278;52.156;21.048;2022-08-03T03:06:24;17.10;99.90
18305;DHT22;9278;52.156;21.048;2022-08-03T03:08:56;17.10;99.90
18305;DHT22;9278;52.156;21.048;2022-08-03T03:11:25;17.00;99.90
18305;DHT22;9278;52.156;21.048;2022-08-03T03:13:55;17.10;99.90
18305;DHT22;9278;52.156;21.048;2022-08-03T03:16:26;17.10;99.90
18305;DHT22;9278;52.156;21.048;2022-08-03T03:18:56;17.20;99.90
18305;DHT22;9278;52.156;21.048;2022-08-03T03:21:25;17.30;99.90
18305;DHT22;9278;52.156;21.048;2022-08-03T03:23:54;17.30;99.90
18305;DHT22;9278;52.156;21.048;2022-08-03T03:26:22;17.40;99.90
18305;DHT22;9278;52.156;21.048;2022-08-03T03:28:51;17.50;99.90
18305;DHT22;9278;52.156;21.048;2022-08-03T03:31:20;17.60;99.90
18305;DHT22;9278;52.156;21.048;2022-08-03T03:33:50;17.70;99.90
18305;DHT22;9278;52.156;21.048;2022-08-03T03:36:18;17.80;99.90
18305;DHT22;9278;52.156;21.048;2022-08-03T03:38:46;17.80;99.90
18305;DHT22;9278;52.156;21.048;2022-08-03T03:41:14;17.90;99.90
18305;DHT22;9278;52.156;21.048;2022-08-03T03:43:43;18.00;99.90
18305;DHT22;9278;52.156;21.048;2022-08-03T03:46:11;18.20;99.90
18305;DHT22;9278;52.156;21.048;2022-08-03T03:48:40;18.20;99.90
18305;DHT22;9278;52.156;21.048;2022-08-03T03:51:09;18.20;99.90
18305;DHT22;9278;52.156;21.048;2022-08-03T03:53:38;18.20;99.90
18305;DHT22;9278;52.156;21.048;2022-08-03T03:56:06;18.30;99.90
18305;DHT22;9278;52.156;21.048;2022-08-03T03:58:34;18.30;99.90
18305;DHT22;9278;52.156;21.048;2022-08-03T04:01:02;18.40;99.90
18305;DHT22;9278;52.156;21.048;2022-08-03T04:03:30;18.50;99.90
18305;DHT22;9278;52.156;21.048;2022-08-03T04:05:58;18.50;99.90
18305;DHT22;9278;52.156;21.048;2022-08-03T04:08:45;18.70;99.90
18305;DHT22;9278;52.156;21.048;2022-08-03T04:11:35;18.80;99.90
18305;DHT22;9278;52.156;21.048;2022-08-03T04:14:08;18.90;99.90
18305;DHT22;9278;52.156;21.048;2022-08-03T04:16:40;18.80;99.90
18305;DHT22;9278;52.156;21.048;2022-08-03T04:19:12;18.90;99.90
18305;DHT22;9278;52.156;21.048;2022-08-03T04:21:51;19.00;99.90
18305;DHT22;9278;52.156;21.048;2022-08-03T04:24:24;19.10;99.90
18305;DHT22;9278;52.156;21.048;2022-08-03T04:26:55;19.20;99.90
18305;DHT22;9278;52.156;21.048;2022-08-03T04:29:25;19.30;99.90
18305;DHT22;9278;52.156;21.048;2022-08-03T04:31:54;19.40;99.90
18305;DHT22;9278;52.156;21.048;2022-08-03T04:34:24;19.50;99.90
18305;DHT22;9278;52.156;21.048;2022-08-03T04:36:56;19.50;99.90
18305;DHT22;9278;52.156;21.048;2022-08-03T04:39:30;19.70;99.90
18305;DHT22;9278;52.156;21.048;2022-08-03T04:42:01;19.80;99.90
18305;DHT22;9278;52.156;21.048;2022-08-03T04:44:36;19.90;99.90
18305;DHT22;9278;52.156;21.048;2022-08-03T04:47:06;19.90;99.90
18305;DHT22;9278;52.156;21.048;2022-08-03T04:49:36;20.10;99.90
18305;DHT22;9278;52.156;21.048;2022-08-03T04:52:06;20.10;99.90
18305;DHT22;9278;52.156;21.048;2022-08-03T04:54:40;20.10;99.90
18305;DHT22;9278;52.156;21.048;2022-08-03T04:57:17;20.10;99.90
18305;DHT22;9278;52.156;21.048;2022-08-03T04:59:48;20.20;99.90
18305;DHT22;9278;52.156;21.048;2022-08-03T05:02:28;20.20;99.90
18305;DHT22;9278;52.156;21.048;2022-08-03T05:04:57;20.30;99.90
18305;DHT22;9278;52.156;21.048;2022-08-03T05:07:25;20.40;99.90
18305;DHT22;9278;52.156;21.048;2022-08-03T05:10:05;20.40;99.90
18305;DHT22;9278;52.156;21.048;2022-08-03T05:12:43;20.40;99.90
18305;DHT22;9278;52.156;21.048;2022-08-03T05:15:11;20.40;99.90
18305;DHT22;9278;52.156;21.048;2022-08-03T05:17:40;20.60;99.90
18305;DHT22;9278;52.156;21.048;2022-08-03T05:20:09;20.80;99.90
18305;DHT22;9278;52.156;21.048;2022-08-03T05:22:38;20.60;99.90
18305;DHT22;9278;52.156;21.048;2022-08-03T05:25:07;20.60;99.90
18305;DHT22;9278;52.156;21.048;2022-08-03T05:27:45;20.60;99.90
18305;DHT22;9278;52.156;21.048;2022-08-03T05:30:14;20.60;99.90
18305;DHT22;9278;52.156;21.048;2022-08-03T05:32:59;20.70;99.90
18305;DHT22;9278;52.156;21.048;2022-08-03T05:35:28;20.80;99.90
18305;DHT22;9278;52.156;21.048;2022-08-03T05:38:16;21.00;99.90
18305;DHT22;9278;52.156;21.048;2022-08-03T05:40:56;21.10;99.90
18305;DHT22;9278;52.156;21.048;2022-08-03T05:43:45;21.20;99.90
18305;DHT22;9278;52.156;21.048;2022-08-03T05:46:13;21.40;99.90
18305;DHT22;9278;52.156;21.048;2022-08-03T05:48:42;21.60;99.90
18305;DHT22;9278;52.156;21.048;2022-08-03T05:51:10;21.60;99.90
18305;DHT22;9278;52.156;21.048;2022-08-03T05:53:39;21.70;99.90
18305;DHT22;9278;52.156;21.048;2022-08-03T05:56:09;21.50;99.90
18305;DHT22;9278;52.156;21.048;2022-08-03T05:58:42;21.40;99.90
18305;DHT22;9278;52.156;21.048;2022-08-03T06:01:10;21.20;99.90
18305;DHT22;9278;52.156;21.048;2022-08-03T06:03:38;21.10;99.90
18305;DHT22;9278;52.156;21.048;2022-08-03T06:06:06;21.40;99.90
18305;DHT22;9278;52.156;21.048;2022-08-03T06:08:34;21.40;99.90
18305;DHT22;9278;52.156;21.048;2022-08-03T06:11:02;21.40;99.90
18305;DHT22;9278;52.156;21.048;2022-08-03T06:13:32;21.50;99.90
18305;DHT22;9278;52.156;21.048;2022-08-03T06:16:00;21.40;99.90
18305;DHT22;9278;52.156;21.048;2022-08-03T06:18:29;21.40;99.90
18305;DHT22;9278;52.156;21.048;2022-08-03T06:20:57;21.40;99.90
18305;DHT22;9278;52.156;21.048;2022-08-03T06:23:43;21.40;99.90
18305;DHT22;9278;52.156;21.048;2022-08-03T06:26:23;22.00;99.90
18305;DHT22;9278;52.156;21.048;2022-08-03T06:28:53;22.00;99.90
18305;DHT22;9278;52.156;21.048;2022-08-03T06:31:22;22.30;99.90
18305;DHT22;9278;52.156;21.048;2022-08-03T06:34:01;22.50;99.90
18305;DHT22;9278;52.156;21.048;2022-08-03T06:36:49;22.80;99.90
18305;DHT22;9278;52.156;21.048;2022-08-03T06:39:19;22.80;99.90
18305;DHT22;9278;52.156;21.048;2022-08-03T06:41:50;23.00;99.90
18305;DHT22;9278;52.156;21.048;2022-08-03T06:44:20;22.90;99.90
18305;DHT22;9278;52.156;21.048;2022-08-03T06:46:48;23.00;99.90
18305;DHT22;9278;52.156;21.048;2022-08-03T06:49:17;23.50;99.90
18305;DHT22;9278;52.156;21.048;2022-08-03T06:51:46;23.40;99.90
18305;DHT22;9278;52.156;21.048;2022-08-03T06:54:34;23.10;99.90
18305;DHT22;9278;52.156;21.048;2022-08-03T06:57:03;22.70;99.90
18305;DHT22;9278;52.156;21.048;2022-08-03T06:59:33;22.60;99.90
18305;DHT22;9278;52.156;21.048;2022-08-03T07:02:21;22.70;99.90
18305;DHT22;9278;52.156;21.048;2022-08-03T07:04:49;22.80;99.90
18305;DHT22;9278;52.156;21.048;2022-08-03T07:07:17;23.00;99.90
18305;DHT22;9278;52.156;21.048;2022-08-03T07:09:46;22.90;99.90
18305;DHT22;9278;52.156;21.048;2022-08-03T07:12:23;22.80;99.90
18305;DHT22;9278;52.156;21.048;2022-08-03T07:14:53;22.90;99.90
18305;DHT22;9278;52.156;21.048;2022-08-03T07:17:28;23.30;99.90
18305;DHT22;9278;52.156;21.048;2022-08-03T07:19:56;22.80;99.90
18305;DHT22;9278;52.156;21.048;2022-08-03T07:22:24;23.50;99.90
18305;DHT22;9278;52.156;21.048;2022-08-03T07:24:52;23.50;99.90
18305;DHT22;9278;52.156;21.048;2022-08-03T07:27:20;23.60;99.90
18305;DHT22;9278;52.156;21.048;2022-08-03T07:29:48;23.80;99.90
18305;DHT22;9278;52.156;21.048;2022-08-03T07:32:18;23.90;99.90
18305;DHT22;9278;52.156;21.048;2022-08-03T07:34:46;24.00;99.90
18305;DHT22;9278;52.156;21.048;2022-08-03T07:37:14;23.60;99.90
18305;DHT22;9278;52.156;21.048;2022-08-03T07:39:42;23.70;99.90
18305;DHT22;9278;52.156;21.048;2022-08-03T07:42:11;23.80;99.90
18305;DHT22;9278;52.156;21.048;2022-08-03T07:44:40;23.70;99.90
18305;DHT22;9278;52.156;21.048;2022-08-03T07:47:08;23.80;99.90
18305;DHT22;9278;52.156;21.048;2022-08-03T07:49:49;24.10;99.90
18305;DHT22;9278;52.156;21.048;2022-08-03T07:52:18;24.10;99.90
18305;DHT22;9278;52.156;21.048;2022-08-03T07:55:04;24.30;99.90
18305;DHT22;9278;52.156;21.048;2022-08-03T07:57:33;24.50;99.90
18305;DHT22;9278;52.156;21.048;2022-08-03T08:00:03;24.70;99.90
18305;DHT22;9278;52.156;21.048;2022-08-03T08:02:38;24.40;99.90
18305;DHT22;9278;52.156;21.048;2022-08-03T08:05:08;24.40;99.90
18305;DHT22;9278;52.156;21.048;2022-08-03T08:07:37;24.60;99.90
18305;DHT22;9278;52.156;21.048;2022-08-03T08:10:07;24.70;99.90
18305;DHT22;9278;52.156;21.048;2022-08-03T08:12:36;24.70;99.90
18305;DHT22;9278;52.156;21.048;2022-08-03T08:15:06;24.80;99.90
18305;DHT22;9278;52.156;21.048;2022-08-03T08:17:41;24.90;99.90
18305;DHT22;9278;52.156;21.048;2022-08-03T08:20:15;24.90;99.90
18305;DHT22;9278;52.156;21.048;2022-08-03T08:22:54;25.10;99.90
18305;DHT22;9278;52.156;21.048;2022-08-03T08:25:24;25.20;99.90
18305;DHT22;9278;52.156;21.048;2022-08-03T08:27:52;25.30;99.90
18305;DHT22;9278;52.156;21.048;2022-08-03T08:30:40;25.10;99.90
18305;DHT22;9278;52.156;21.048;2022-08-03T08:33:09;24.80;99.90
18305;DHT22;9278;52.156;21.048;2022-08-03T08:35:51;25.10;99.90
18305;DHT22;9278;52.156;21.048;2022-08-03T08:38:20;25.00;99.90
18305;DHT22;9278;52.156;21.048;2022-08-03T08:40:48;24.90;99.90
18305;DHT22;9278;52.156;21.048;2022-08-03T08:43:17;24.90;99.90
18305;DHT22;9278;52.156;21.048;2022-08-03T08:45:46;24.50;99.90
18305;DHT22;9278;52.156;21.048;2022-08-03T08:48:17;24.50;99.90
18305;DHT22;9278;52.156;21.048;2022-08-03T08:50:53;24.60;99.90
18305;DHT22;9278;52.156;21.048;2022-08-03T08:53:22;24.70;99.90
18305;DHT22;9278;52.156;21.048;2022-08-03T08:55:54;24.90;99.90
18305;DHT22;9278;52.156;21.048;2022-08-03T08:58:28;25.00;99.90
18305;DHT22;9278;52.156;21.048;2022-08-03T09:00:57;25.10;99.90
18305;DHT22;9278;52.156;21.048;2022-08-03T09:03:25;25.30;99.90
18305;DHT22;9278;52.156;21.048;2022-08-03T09:05:58;25.30;99.90
18305;DHT22;9278;52.156;21.048;2022-08-03T09:08:27;25.60;99.90
18305;DHT22;9278;52.156;21.048;2022-08-03T09:10:56;25.70;99.90
18305;DHT22;9278;52.156;21.048;2022-08-03T09:13:24;25.70;99.90
18305;DHT22;9278;52.156;21.048;2022-08-03T09:16:10;25.80;99.90
18305;DHT22;9278;52.156;21.048;2022-08-03T09:18:39;25.90;99.90
18305;DHT22;9278;52.156;21.048;2022-08-03T09:21:20;26.00;99.90
18305;DHT22;9278;52.156;21.048;2022-08-03T09:24:04;26.10;99.90
18305;DHT22;9278;52.156;21.048;2022-08-03T09:26:51;26.70;99.90
18305;DHT22;9278;52.156;21.048;2022-08-03T09:29:20;27.10;99.90
18305;DHT22;9278;52.156;21.048;2022-08-03T09:31:48;27.30;99.90
18305;DHT22;9278;52.156;21.048;2022-08-03T09:34:26;27.20;99.90
18305;DHT22;9278;52.156;21.048;2022-08-03T09:36:56;27.30;99.90
18305;DHT22;9278;52.156;21.048;2022-08-03T09:39:26;27.30;99.90
18305;DHT22;9278;52.156;21.048;2022-08-03T09:42:09;27.50;99.90
18305;DHT22;9278;52.156;21.048;2022-08-03T09:44:42;28.10;99.90
18305;DHT22;9278;52.156;21.048;2022-08-03T09:47:12;28.30;99.90
18305;DHT22;9278;52.156;21.048;2022-08-03T09:49:42;28.70;99.00
18305;DHT22;9278;52.156;21.048;2022-08-03T09:52:30;28.50;97.60
18305;DHT22;9278;52.156;21.048;2022-08-03T09:55:16;28.90;96.10
18305;DHT22;9278;52.156;21.048;2022-08-03T09:58:06;28.90;95.30
18305;DHT22;9278;52.156;21.048;2022-08-03T10:00:51;28.50;96.00
18305;DHT22;9278;52.156;21.048;2022-08-03T10:03:21;28.30;95.50
18305;DHT22;9278;52.156;21.048;2022-08-03T10:05:49;28.50;96.00
18305;DHT22;9278;52.156;21.048;2022-08-03T10:08:26;28.60;95.20
18305;DHT22;9278;52.156;21.048;2022-08-03T10:10:54;27.90;95.20
18305;DHT22;9278;52.156;21.048;2022-08-03T10:13:24;27.40;95.90
18305;DHT22;9278;52.156;21.048;2022-08-03T10:15:52;27.10;96.50
18305;DHT22;9278;52.156;21.048;2022-08-03T10:18:40;27.40;97.50
18305;DHT22;9278;52.156;21.048;2022-08-03T10:21:09;27.50;96.50
18305;DHT22;9278;52.156;21.048;2022-08-03T10:23:42;27.30;96.00
18305;DHT22;9278;52.156;21.048;2022-08-03T10:26:13;27.30;95.70
18305;DHT22;9278;52.156;21.048;2022-08-03T10:28:48;27.80;94.80
18305;DHT22;9278;52.156;21.048;2022-08-03T10:31:17;27.80;94.80
18305;DHT22;9278;52.156;21.048;2022-08-03T10:33:49;27.50;95.10
18305;DHT22;9278;52.156;21.048;2022-08-03T10:47:59;27.30;77.90
18305;DHT22;9278;52.156;21.048;2022-08-03T10:50:28;28.10;93.30
18305;DHT22;9278;52.156;21.048;2022-08-03T10:52:56;28.30;91.80
18305;DHT22;9278;52.156;21.048;2022-08-03T10:55:30;27.90;91.60
18305;DHT22;9278;52.156;21.048;2022-08-03T10:58:47;27.70;92.30
18305;DHT22;9278;52.156;21.048;2022-08-03T11:01:50;27.40;92.60
18305;DHT22;9278;52.156;21.048;2022-08-03T11:04:28;26.90;95.40
18305;DHT22;9278;52.156;21.048;2022-08-03T11:07:19;27.10;96.00
18305;DHT22;9278;52.156;21.048;2022-08-03T11:09:49;27.50;93.50
18305;DHT22;9278;52.156;21.048;2022-08-03T11:12:22;27.90;92.40
18305;DHT22;9278;52.156;21.048;2022-08-03T11:15:00;27.40;91.50
18305;DHT22;9278;52.156;21.048;2022-08-03T11:17:28;27.50;93.00
18305;DHT22;9278;52.156;21.048;2022-08-03T11:19:58;27.80;91.30
18305;DHT22;9278;52.156;21.048;2022-08-03T11:22:48;27.90;90.80
18305;DHT22;9278;52.156;21.048;2022-08-03T11:25:20;27.90;90.40
18305;DHT22;9278;52.156;21.048;2022-08-03T11:28:24;27.60;90.90
18305;DHT22;9278;52.156;21.048;2022-08-03T11:30:53;28.20;89.60
18305;DHT22;9278;52.156;21.048;2022-08-03T11:33:30;28.00;86.00
18305;DHT22;9278;52.156;21.048;2022-08-03T11:36:00;28.10;85.30
18305;DHT22;9278;52.156;21.048;2022-08-03T11:38:29;28.20;86.50
18305;DHT22;9278;52.156;21.048;2022-08-03T11:40:58;28.30;87.60
18305;DHT22;9278;52.156;21.048;2022-08-03T11:43:44;28.40;88.70
18305;DHT22;9278;52.156;21.048;2022-08-03T11:46:14;28.40;88.00
18305;DHT22;9278;52.156;21.048;2022-08-03T11:49:03;28.10;87.30
18305;DHT22;9278;52.156;21.048;2022-08-03T11:51:37;27.90;90.10
18305;DHT22;9278;52.156;21.048;2022-08-03T11:54:07;27.70;91.00
18305;DHT22;9278;52.156;21.048;2022-08-03T11:56:44;27.60;89.90
18305;DHT22;9278;52.156;21.048;2022-08-03T11:59:12;27.40;90.30
18305;DHT22;9278;52.156;21.048;2022-08-03T12:01:47;27.40;90.90
18305;DHT22;9278;52.156;21.048;2022-08-03T12:04:15;27.30;91.10
18305;DHT22;9278;52.156;21.048;2022-08-03T12:06:57;27.30;90.70
18305;DHT22;9278;52.156;21.048;2022-08-03T12:09:26;27.20;91.80
18305;DHT22;9278;52.156;21.048;2022-08-03T12:11:55;27.40;91.60
18305;DHT22;9278;52.156;21.048;2022-08-03T12:14:27;27.70;89.70
18305;DHT22;9278;52.156;21.048;2022-08-03T12:17:16;27.80;89.70
18305;DHT22;9278;52.156;21.048;2022-08-03T12:19:45;28.30;87.40
18305;DHT22;9278;52.156;21.048;2022-08-03T12:22:13;28.20;85.10
18305;DHT22;9278;52.156;21.048;2022-08-03T12:24:44;28.30;85.20
18305;DHT22;9278;52.156;21.048;2022-08-03T12:27:22;27.80;86.20
18305;DHT22;9278;52.156;21.048;2022-08-03T12:29:52;27.50;90.20
18305;DHT22;9278;52.156;21.048;2022-08-03T12:32:25;27.60;88.90
18305;DHT22;9278;52.156;21.048;2022-08-03T12:34:54;27.70;88.70
18305;DHT22;9278;52.156;21.048;2022-08-03T12:37:27;27.90;87.50
18305;DHT22;9278;52.156;21.048;2022-08-03T12:39:59;28.10;86.00
18305;DHT22;9278;52.156;21.048;2022-08-03T12:42:37;28.30;84.00
18305;DHT22;9278;52.156;21.048;2022-08-03T12:45:22;28.70;79.40
18305;DHT22;9278;52.156;21.048;2022-08-03T12:47:52;28.60;79.60
18305;DHT22;9278;52.156;21.048;2022-08-03T12:50:25;28.50;78.70
18305;DHT22;9278;52.156;21.048;2022-08-03T12:52:54;28.20;83.10
18305;DHT22;9278;52.156;21.048;2022-08-03T12:55:24;28.30;81.80
18305;DHT22;9278;52.156;21.048;2022-08-03T12:58:28;28.20;83.50
18305;DHT22;9278;52.156;21.048;2022-08-03T13:01:00;28.00;83.80
18305;DHT22;9278;52.156;21.048;2022-08-03T13:03:38;27.80;86.30
18305;DHT22;9278;52.156;21.048;2022-08-03T13:06:12;27.70;83.70
18305;DHT22;9278;52.156;21.048;2022-08-03T13:08:41;27.70;83.20
18305;DHT22;9278;52.156;21.048;2022-08-03T13:11:22;27.80;81.90
18305;DHT22;9278;52.156;21.048;2022-08-03T13:14:10;27.60;81.70
18305;DHT22;9278;52.156;21.048;2022-08-03T13:16:45;27.80;80.90
18305;DHT22;9278;52.156;21.048;2022-08-03T13:19:13;28.20;78.90
18305;DHT22;9278;52.156;21.048;2022-08-03T13:21:42;28.20;79.10
18305;DHT22;9278;52.156;21.048;2022-08-03T13:24:30;28.50;76.60
18305;DHT22;9278;52.156;21.048;2022-08-03T13:27:00;28.60;75.50
18305;DHT22;9278;52.156;21.048;2022-08-03T13:29:50;28.50;74.10
18305;DHT22;9278;52.156;21.048;2022-08-03T13:32:20;28.50;76.40
18305;DHT22;9278;52.156;21.048;2022-08-03T13:34:48;28.70;76.00
18305;DHT22;9278;52.156;21.048;2022-08-03T13:37:16;28.70;77.40
18305;DHT22;9278;52.156;21.048;2022-08-03T13:39:44;28.70;77.30
18305;DHT22;9278;52.156;21.048;2022-08-03T13:42:27;28.60;74.00
18305;DHT22;9278;52.156;21.048;2022-08-03T13:44:56;28.40;74.40
18305;DHT22;9278;52.156;21.048;2022-08-03T13:47:24;28.40;75.60
18305;DHT22;9278;52.156;21.048;2022-08-03T13:49:53;28.60;74.60
18305;DHT22;9278;52.156;21.048;2022-08-03T13:52:28;29.10;72.10
18305;DHT22;9278;52.156;21.048;2022-08-03T13:54:57;29.20;71.50
18305;DHT22;9278;52.156;21.048;2022-08-03T13:57:27;29.20;68.20
18305;DHT22;9278;52.156;21.048;2022-08-03T14:00:16;29.40;65.40
18305;DHT22;9278;52.156;21.048;2022-08-03T14:02:56;29.40;66.50
18305;DHT22;9278;52.156;21.048;2022-08-03T14:05:41;29.40;65.80
18305;DHT22;9278;52.156;21.048;2022-08-03T14:08:10;29.20;65.00
18305;DHT22;9278;52.156;21.048;2022-08-03T14:10:40;29.20;66.00
18305;DHT22;9278;52.156;21.048;2022-08-03T14:13:11;29.60;65.30
18305;DHT22;9278;52.156;21.048;2022-08-03T14:15:44;29.30;60.90
18305;DHT22;9278;52.156;21.048;2022-08-03T14:18:18;29.60;61.80
18305;DHT22;9278;52.156;21.048;2022-08-03T14:21:00;29.50;61.70
18305;DHT22;9278;52.156;21.048;2022-08-03T14:23:32;29.70;61.00
18305;DHT22;9278;52.156;21.048;2022-08-03T14:26:00;29.90;59.70
18305;DHT22;9278;52.156;21.048;2022-08-03T14:28:30;29.90;57.80
18305;DHT22;9278;52.156;21.048;2022-08-03T14:30:58;29.90;57.60
18305;DHT22;9278;52.156;21.048;2022-08-03T14:33:26;29.70;58.40
18305;DHT22;9278;52.156;21.048;2022-08-03T14:35:55;29.80;57.70
18305;DHT22;9278;52.156;21.048;2022-08-03T14:38:23;30.00;55.30
18305;DHT22;9278;52.156;21.048;2022-08-03T14:40:51;30.30;53.60
18305;DHT22;9278;52.156;21.048;2022-08-03T14:43:19;30.30;52.80
18305;DHT22;9278;52.156;21.048;2022-08-03T14:45:50;30.10;52.60
18305;DHT22;9278;52.156;21.048;2022-08-03T14:48:20;30.10;52.70
18305;DHT22;9278;52.156;21.048;2022-08-03T14:51:08;30.00;52.90
18305;DHT22;9278;52.156;21.048;2022-08-03T14:53:36;30.00;52.60
18305;DHT22;9278;52.156;21.048;2022-08-03T14:56:05;29.90;53.20
18305;DHT22;9278;52.156;21.048;2022-08-03T14:58:36;29.90;53.60
18305;DHT22;9278;52.156;21.048;2022-08-03T15:01:06;29.90;51.90
18305;DHT22;9278;52.156;21.048;2022-08-03T15:03:54;29.80;52.90
18305;DHT22;9278;52.156;21.048;2022-08-03T15:06:23;29.70;51.90
18305;DHT22;9278;52.156;21.048;2022-08-03T15:08:51;29.60;52.20
18305;DHT22;9278;52.156;21.048;2022-08-03T15:11:40;29.60;53.00
18305;DHT22;9278;52.156;21.048;2022-08-03T15:14:08;29.50;53.60
18305;DHT22;9278;52.156;21.048;2022-08-03T15:16:40;29.40;54.20
18305;DHT22;9278;52.156;21.048;2022-08-03T15:19:09;29.40;53.80
18305;DHT22;9278;52.156;21.048;2022-08-03T15:21:57;29.10;53.10
18305;DHT22;9278;52.156;21.048;2022-08-03T15:24:26;29.00;80.90
18305;DHT22;9278;52.156;21.048;2022-08-03T15:26:55;29.00;56.90
18305;DHT22;9278;52.156;21.048;2022-08-03T15:29:23;28.90;54.40
18305;DHT22;9278;52.156;21.048;2022-08-03T15:32:12;28.90;56.20
18305;DHT22;9278;52.156;21.048;2022-08-03T15:34:40;28.80;55.70
18305;DHT22;9278;52.156;21.048;2022-08-03T15:37:16;28.80;54.80
18305;DHT22;9278;52.156;21.048;2022-08-03T15:39:44;28.80;55.30
18305;DHT22;9278;52.156;21.048;2022-08-03T15:42:27;28.80;55.10
18305;DHT22;9278;52.156;21.048;2022-08-03T15:44:56;28.80;54.60
18305;DHT22;9278;52.156;21.048;2022-08-03T15:47:25;28.70;55.30
18305;DHT22;9278;52.156;21.048;2022-08-03T15:49:54;28.60;55.80
18305;DHT22;9278;52.156;21.048;2022-08-03T15:52:22;28.60;56.90
18305;DHT22;9278;52.156;21.048;2022-08-03T15:54:50;28.40;57.50
18305;DHT22;9278;52.156;21.048;2022-08-03T15:57:19;28.40;56.70
18305;DHT22;9278;52.156;21.048;2022-08-03T15:59:47;28.50;55.60
18305;DHT22;9278;52.156;21.048;2022-08-03T16:02:16;28.60;55.90
18305;DHT22;9278;52.156;21.048;2022-08-03T16:04:45;28.60;55.60
18305;DHT22;9278;52.156;21.048;2022-08-03T16:07:13;28.70;56.70
18305;DHT22;9278;52.156;21.048;2022-08-03T16:09:42;28.60;57.00
18305;DHT22;9278;52.156;21.048;2022-08-03T16:12:10;28.60;56.90
18305;DHT22;9278;52.156;21.048;2022-08-03T16:14:43;28.50;56.60
18305;DHT22;9278;52.156;21.048;2022-08-03T16:17:19;28.40;57.20